Time;durP1;ratioP1;P1;durP2;ratioP2;P2;SDS_P1;SDS_P2;PMS_P1;PMS_P2;Temp;Humidity;BMP_temperature;BMP_pressure;BME280_temperature;BME280_humidity;BME280_pressure;Samples;Min_cycle;Max_cycle;Signal;HPM_P1;HPM_P2
2023/09/18 00:00:02;;;;;;;3.90;2.53;;;23.70;99.90;;;;;;5070764;28;20467;-72
2023/09/18 00:02:29;;;;;;;4.20;2.20;;;23.50;99.90;;;;;;5088901;28;20469;-72
2023/09/18 00:04:55;;;;;;;4.77;2.43;;;23.40;99.90;;;;;;5070729;28;20440;-72
2023/09/18 00:07:20;;;;;;;2.40;2.20;;;23.30;99.90;;;;;;5070344;28;20955;-72
2023/09/18 00:09:46;;;;;;;13.90;2.93;;;23.30;99.90;;;;;;5088978;28;20179;-72
2023/09/18 00:12:11;;;;;;;10.97;2.60;;;23.20;99.90;;;;;;5088781;28;20181;-72
2023/09/18 00:14:37;;;;;;;9.10;3.83;;;23.10;99.90;;;;;;5088617;28;20751;-72
2023/09/18 00:17:03;;;;;;;5.40;2.53;;;23.10;99.90;;;;;;5070587;28;20205;-72
2023/09/18 00:19:29;;;;;;;4.93;2.43;;;23.10;99.90;;;;;;5070264;28;20235;-72
2023/09/18 00:21:56;;;;;;;6.47;2.40;;;23.00;99.90;;;;;;5088540;28;20831;-72
2023/09/18 00:24:22;;;;;;;8.40;2.73;;;22.90;99.90;;;;;;5088500;28;20582;-72
2023/09/18 00:26:48;;;;;;;13.43;3.23;;;22.90;99.90;;;;;;5088615;28;20422;-72
2023/09/18 00:29:14;;;;;;;6.17;2.93;;;22.90;99.90;;;;;;5069970;28;20481;-72
2023/09/18 00:31:40;;;;;;;6.70;2.87;;;22.90;99.90;;;;;;5088595;28;20503;-72
2023/09/18 00:34:05;;;;;;;8.97;3.00;;;22.90;99.90;;;;;;5053339;28;20592;-72
2023/09/18 00:36:31;;;;;;;3.90;2.33;;;22.90;99.90;;;;;;5088629;28;20191;-73
2023/09/18 00:38:56;;;;;;;4.13;2.50;;;22.90;99.90;;;;;;5088509;28;20189;-73
2023/09/18 00:41:22;;;;;;;11.83;3.40;;;22.90;99.90;;;;;;5070252;28;20215;-73
2023/09/18 00:43:48;;;;;;;4.63;2.70;;;22.90;99.90;;;;;;5088318;28;20558;-72
2023/09/18 00:46:13;;;;;;;3.20;2.87;;;22.90;99.90;;;;;;5088316;28;20190;-72
2023/09/18 00:48:39;;;;;;;9.70;2.83;;;22.80;99.90;;;;;;5088378;28;20184;-72
2023/09/18 00:51:06;;;;;;;6.10;2.73;;;22.80;99.90;;;;;;5069980;28;20197;-72
2023/09/18 00:53:31;;;;;;;5.03;2.40;;;22.80;99.90;;;;;;5088238;28;20743;-73
2023/09/18 00:56:00;;;;;;;5.23;2.50;;;22.80;99.90;;;;;;5088266;28;20770;-73
2023/09/18 00:58:26;;;;;;;7.50;3.57;;;22.90;99.90;;;;;;5070173;28;20183;-72
2023/09/18 01:00:52;;;;;;;6.20;2.80;;;22.90;99.90;;;;;;5069775;28;20463;-72
2023/09/18 01:03:19;;;;;;;9.37;2.43;;;22.90;99.90;;;;;;5088044;28;20426;-72
2023/09/18 01:05:45;;;;;;;5.20;2.57;;;23.00;99.90;;;;;;5053479;28;20176;-72
2023/09/18 01:08:11;;;;;;;11.53;3.43;;;23.00;99.90;;;;;;5070092;28;20491;-72
2023/09/18 01:10:48;;;;;;;6.93;2.77;;;23.00;99.90;;;;;;5088100;28;20193;-72
2023/09/18 01:13:16;;;;;;;5.43;2.60;;;23.00;99.90;;;;;;5087973;28;20420;-72
2023/09/18 01:15:54;;;;;;;6.10;2.67;;;23.00;99.90;;;;;;5088010;28;20473;-71
2023/09/18 01:18:19;;;;;;;8.50;2.33;;;23.00;99.90;;;;;;5088016;28;20410;-71
2023/09/18 01:20:45;;;;;;;3.97;2.40;;;23.10;99.90;;;;;;5052882;28;20848;-72
2023/09/18 01:23:13;;;;;;;11.10;2.60;;;23.10;99.90;;;;;;5069728;28;20197;-71
2023/09/18 01:25:39;;;;;;;4.00;2.30;;;23.10;99.90;;;;;;5070075;28;20191;-71
2023/09/18 01:28:05;;;;;;;3.60;2.30;;;23.20;99.90;;;;;;5087979;28;20816;-71
2023/09/18 01:30:30;;;;;;;7.20;2.80;;;23.20;99.90;;;;;;5087807;28;20187;-72
2023/09/18 01:32:58;;;;;;;5.73;2.57;;;23.10;99.90;;;;;;5069674;28;20183;-71
2023/09/18 01:35:29;;;;;;;7.17;2.27;;;23.10;99.90;;;;;;5087770;28;20205;-72
2023/09/18 01:37:56;;;;;;;9.07;2.60;;;23.00;99.90;;;;;;5087983;28;20412;-72
2023/09/18 01:40:23;;;;;;;5.13;2.50;;;23.00;99.90;;;;;;5088035;28;21001;-72
2023/09/18 01:42:49;;;;;;;6.60;2.37;;;22.90;99.90;;;;;;5090697;28;20503;-72
2023/09/18 01:45:14;;;;;;;9.57;3.67;;;22.90;99.90;;;;;;5091922;28;20460;-72
2023/09/18 01:47:40;;;;;;;8.53;2.73;;;22.90;99.90;;;;;;5073632;28;20195;-72
2023/09/18 01:50:06;;;;;;;7.07;2.90;;;22.80;99.90;;;;;;5091949;28;20266;-72
2023/09/18 01:52:34;;;;;;;7.90;3.00;;;22.80;99.90;;;;;;5057040;28;20969;-71
2023/09/18 01:55:00;;;;;;;11.37;2.53;;;22.80;99.90;;;;;;5091852;28;20448;-71
2023/09/18 01:57:25;;;;;;;8.83;2.73;;;22.80;99.90;;;;;;5073975;28;20431;-71
2023/09/18 01:59:51;;;;;;;8.30;2.70;;;22.80;99.90;;;;;;5073692;28;20447;-71
2023/09/18 02:02:17;;;;;;;4.47;2.30;;;22.80;99.90;;;;;;5092095;28;20209;-71
2023/09/18 02:04:42;;;;;;;8.13;3.10;;;22.70;99.90;;;;;;5056860;28;20201;-71
2023/09/18 02:07:09;;;;;;;8.07;3.00;;;22.60;99.90;;;;;;5091574;28;20615;-72
2023/09/18 02:09:34;;;;;;;7.13;2.67;;;22.40;99.90;;;;;;5091351;28;20277;-71
2023/09/18 02:12:00;;;;;;;8.57;3.00;;;22.40;99.90;;;;;;5072793;28;20520;-71
2023/09/18 02:14:26;;;;;;;5.80;3.03;;;22.20;99.90;;;;;;5072901;28;20212;-72
2023/09/18 02:16:51;;;;;;;8.60;2.83;;;22.20;99.90;;;;;;5091203;28;20178;-71
2023/09/18 02:19:18;;;;;;;4.10;2.70;;;22.00;99.90;;;;;;5072842;28;20268;-71
2023/09/18 02:21:43;;;;;;;12.10;3.63;;;21.90;99.90;;;;;;5091186;28;20740;-71
2023/09/18 02:24:09;;;;;;;7.97;3.20;;;21.80;99.90;;;;;;5073018;28;20437;-71
2023/09/18 02:26:35;;;;;;;7.30;3.00;;;21.80;99.90;;;;;;5073024;28;20207;-71
2023/09/18 02:29:03;;;;;;;4.80;2.97;;;21.70;99.90;;;;;;5091096;28;20737;-72
2023/09/18 02:31:29;;;;;;;5.57;3.03;;;21.80;99.90;;;;;;5090831;28;20212;-72
2023/09/18 02:33:55;;;;;;;12.53;3.30;;;21.70;99.90;;;;;;5090775;28;20456;-72
2023/09/18 02:36:21;;;;;;;5.33;2.93;;;21.60;99.90;;;;;;5072683;28;20179;-72
2023/09/18 02:38:46;;;;;;;6.53;2.40;;;21.40;99.90;;;;;;5090470;28;20843;-72
2023/09/18 02:41:12;;;;;;;4.30;2.70;;;21.30;99.90;;;;;;5072233;28;20687;-72
2023/09/18 02:43:37;;;;;;;11.93;3.00;;;21.20;99.90;;;;;;5090418;28;20292;-72
2023/09/18 02:46:05;;;;;;;4.57;2.77;;;21.00;99.90;;;;;;5072288;28;20183;-72
2023/09/18 02:48:31;;;;;;;5.37;2.93;;;20.90;99.90;;;;;;5072326;28;20174;-72
2023/09/18 02:50:58;;;;;;;5.83;2.50;;;20.90;99.90;;;;;;5071984;28;20514;-72
2023/09/18 02:53:24;;;;;;;4.57;2.77;;;20.90;99.90;;;;;;5090187;28;20509;-72
2023/09/18 02:55:52;;;;;;;4.07;2.67;;;20.80;99.90;;;;;;5071943;28;20845;-72
2023/09/18 02:58:19;;;;;;;6.30;2.47;;;20.70;99.90;;;;;;5090107;28;20527;-72
2023/09/18 03:00:49;;;;;;;12.10;2.77;;;20.70;99.90;;;;;;5071722;28;20522;-72
2023/09/18 03:03:16;;;;;;;5.00;2.60;;;20.80;99.90;;;;;;5090088;28;20500;-72
2023/09/18 03:05:43;;;;;;;6.03;3.30;;;20.80;99.90;;;;;;5071812;28;20942;-72
2023/09/18 03:08:10;;;;;;;7.73;3.13;;;20.70;99.90;;;;;;5071822;28;20849;-72
2023/09/18 03:10:40;;;;;;;7.63;3.07;;;20.80;99.90;;;;;;5089907;28;20417;-72
2023/09/18 03:13:08;;;;;;;6.37;3.23;;;20.80;99.90;;;;;;5071315;28;20796;-72
2023/09/18 03:15:34;;;;;;;7.13;2.60;;;20.80;99.90;;;;;;5089803;28;20918;-72
2023/09/18 03:18:01;;;;;;;5.80;3.23;;;20.90;99.90;;;;;;5071354;28;20408;-71
2023/09/18 03:20:28;;;;;;;3.57;2.90;;;20.80;99.90;;;;;;5089702;28;20933;-71
2023/09/18 03:22:56;;;;;;;7.03;2.63;;;20.90;99.90;;;;;;5089660;28;20953;-71
2023/09/18 03:25:22;;;;;;;5.90;2.50;;;20.80;99.90;;;;;;5089485;28;21007;-71
2023/09/18 03:27:48;;;;;;;5.83;2.67;;;20.80;99.90;;;;;;5071509;28;20429;-71
2023/09/18 03:30:15;;;;;;;8.90;2.63;;;20.70;99.90;;;;;;5089599;28;20425;-71
2023/09/18 03:32:42;;;;;;;11.83;2.90;;;20.60;99.90;;;;;;5089660;28;20935;-71
2023/09/18 03:35:15;;;;;;;8.43;3.10;;;20.60;99.90;;;;;;5089459;28;20443;-71
2023/09/18 03:37:41;;;;;;;7.60;2.83;;;20.50;99.90;;;;;;5089537;28;20421;-71
2023/09/18 03:40:08;;;;;;;3.40;2.87;;;20.60;99.90;;;;;;5089321;28;20451;-72
2023/09/18 03:42:34;;;;;;;8.20;3.57;;;20.50;99.90;;;;;;5089280;28;20840;-71
2023/09/18 03:44:59;;;;;;;8.00;2.80;;;20.60;99.90;;;;;;5089206;28;20446;-71
2023/09/18 03:47:25;;;;;;;10.70;3.40;;;20.50;99.90;;;;;;5089224;28;20182;-71
2023/09/18 03:49:51;;;;;;;8.70;3.40;;;20.30;99.90;;;;;;5089164;28;20335;-72
2023/09/18 03:52:16;;;;;;;7.83;2.93;;;20.20;99.90;;;;;;5089480;28;20221;-72
2023/09/18 03:54:42;;;;;;;6.90;2.67;;;20.20;99.90;;;;;;5089012;28;20202;-72
2023/09/18 03:57:07;;;;;;;4.27;3.00;;;20.20;99.90;;;;;;5070607;28;20229;-72
2023/09/18 03:59:33;;;;;;;6.50;2.93;;;20.30;99.90;;;;;;5089053;28;20193;-71
2023/09/18 04:01:59;;;;;;;10.30;3.20;;;20.40;99.90;;;;;;5088906;28;20238;-70
2023/09/18 04:04:24;;;;;;;7.97;3.00;;;20.60;99.90;;;;;;5070186;28;20706;-70
2023/09/18 04:06:50;;;;;;;8.20;2.37;;;20.70;99.90;;;;;;5088843;28;20190;-70
2023/09/18 04:09:15;;;;;;;7.97;3.07;;;20.90;99.90;;;;;;5070399;28;20276;-71
2023/09/18 04:11:41;;;;;;;6.47;2.60;;;21.00;99.90;;;;;;5070531;28;20190;-71
2023/09/18 04:14:07;;;;;;;5.87;2.23;;;21.30;99.90;;;;;;5088735;28;20218;-70
2023/09/18 04:16:35;;;;;;;4.50;2.50;;;21.30;99.90;;;;;;5070257;28;20201;-71
2023/09/18 04:19:01;;;;;;;6.93;2.27;;;21.50;99.90;;;;;;5069584;28;20186;-71
2023/09/18 04:21:29;;;;;;;12.63;2.80;;;21.50;99.90;;;;;;5087315;28;20547;-70
2023/09/18 04:23:57;;;;;;;10.97;2.80;;;21.60;99.90;;;;;;5087326;28;20440;-69
2023/09/18 04:26:30;;;;;;;8.17;3.07;;;21.50;99.90;;;;;;5087508;28;20770;-70
2023/09/18 04:28:57;;;;;;;9.87;2.60;;;21.50;99.90;;;;;;5087427;28;20412;-70
2023/09/18 04:31:22;;;;;;;14.90;3.37;;;21.40;99.90;;;;;;5087593;28;20424;-70
2023/09/18 04:33:48;;;;;;;6.90;3.27;;;21.40;99.90;;;;;;5087689;28;20441;-70
2023/09/18 04:36:14;;;;;;;16.60;3.13;;;21.30;99.90;;;;;;5087634;28;20570;-69
2023/09/18 04:38:39;;;;;;;12.73;2.87;;;21.30;99.90;;;;;;5087637;28;20192;-69
2023/09/18 04:41:07;;;;;;;9.00;3.00;;;21.30;99.90;;;;;;5087633;28;20581;-70
2023/09/18 04:43:34;;;;;;;17.63;3.43;;;21.10;99.90;;;;;;5087519;28;20194;-70
2023/09/18 04:46:02;;;;;;;10.67;3.63;;;21.30;99.90;;;;;;5069649;28;20421;-69
2023/09/18 04:48:27;;;;;;;9.53;3.20;;;21.30;99.90;;;;;;5087504;28;20996;-69
2023/09/18 04:50:53;;;;;;;17.57;3.17;;;21.30;99.90;;;;;;5087476;28;20535;-69
2023/09/18 04:53:18;;;;;;;11.13;2.67;;;21.20;99.90;;;;;;5087515;28;20191;-69
2023/09/18 04:55:49;;;;;;;9.43;2.90;;;21.20;99.90;;;;;;5087445;28;20191;-69
2023/09/18 04:58:15;;;;;;;10.67;2.83;;;21.20;99.90;;;;;;5087506;28;20187;-70
2023/09/18 05:00:41;;;;;;;13.50;2.73;;;21.10;99.90;;;;;;5087194;28;20418;-69
2023/09/18 05:03:08;;;;;;;15.40;3.13;;;21.10;99.90;;;;;;5068744;28;20498;-70
2023/09/18 05:05:37;;;;;;;15.90;3.50;;;21.10;99.90;;;;;;5087250;28;20184;-70
2023/09/18 05:08:07;;;;;;;13.70;3.37;;;21.00;99.90;;;;;;5087024;28;20429;-70
2023/09/18 05:10:33;;;;;;;6.40;2.23;;;21.00;99.90;;;;;;5087129;28;20416;-70
2023/09/18 05:12:59;;;;;;;8.47;2.30;;;21.00;99.90;;;;;;5068857;28;20761;-69
2023/09/18 05:15:32;;;;;;;6.90;2.47;;;21.00;99.90;;;;;;5087127;28;20444;-70
2023/09/18 05:17:58;;;;;;;5.87;2.30;;;21.00;99.90;;;;;;5090058;28;20178;-70
2023/09/18 05:20:25;;;;;;;10.77;2.67;;;20.90;99.90;;;;;;5090777;28;20419;-70
2023/09/18 05:22:55;;;;;;;13.40;3.30;;;20.90;99.90;;;;;;5090525;28;20471;-71
2023/09/18 05:25:25;;;;;;;14.27;2.73;;;21.00;99.90;;;;;;5090395;28;20455;-71
2023/09/18 05:27:56;;;;;;;7.70;2.70;;;20.90;99.90;;;;;;5090628;28;20412;-70
2023/09/18 05:30:32;;;;;;;6.73;2.50;;;20.90;99.90;;;;;;5090441;28;20448;-70
2023/09/18 05:33:04;;;;;;;7.83;2.23;;;20.90;99.90;;;;;;5090400;28;20431;-70
2023/09/18 05:35:56;;;;;;;10.97;2.43;;;20.90;99.90;;;;;;5090433;28;20465;-70
2023/09/18 05:38:22;;;;;;;13.23;2.80;;;20.80;99.90;;;;;;5066883;28;20434;-70
2023/09/18 05:40:47;;;;;;;9.00;2.50;;;20.80;99.90;;;;;;5090376;28;20436;-70
2023/09/18 05:43:13;;;;;;;7.00;2.10;;;20.80;99.90;;;;;;5055267;28;20189;-70
2023/09/18 05:45:40;;;;;;;11.67;3.00;;;20.80;99.90;;;;;;5090073;28;20185;-70
2023/09/18 05:48:05;;;;;;;6.10;1.80;;;20.90;99.90;;;;;;5090474;28;20447;-70
2023/09/18 05:50:32;;;;;;;9.40;2.10;;;20.90;99.90;;;;;;5089823;28;20922;-70
2023/09/18 05:52:59;;;;;;;8.23;1.50;;;21.00;99.90;;;;;;5090004;28;20181;-70
2023/09/18 05:55:28;;;;;;;9.73;2.13;;;21.10;99.90;;;;;;5089907;28;20439;-70
2023/09/18 05:57:54;;;;;;;12.07;1.60;;;21.20;99.90;;;;;;5090314;28;20404;-70
2023/09/18 06:00:21;;;;;;;8.30;1.97;;;21.20;99.90;;;;;;5089876;28;20412;-71
2023/09/18 06:02:47;;;;;;;5.90;1.40;;;21.20;99.90;;;;;;5089695;28;20912;-70
2023/09/18 06:05:15;;;;;;;7.57;1.40;;;21.30;99.90;;;;;;5089774;28;20441;-70
2023/09/18 06:07:41;;;;;;;5.33;1.60;;;21.30;99.90;;;;;;5071293;28;20187;-70
2023/09/18 06:10:07;;;;;;;8.73;1.83;;;21.30;99.90;;;;;;5089850;28;20420;-70
2023/09/18 06:12:33;;;;;;;9.53;1.73;;;21.40;99.90;;;;;;5089895;28;20269;-70
2023/09/18 06:14:58;;;;;;;5.00;1.60;;;21.40;99.90;;;;;;5089521;28;20440;-71
2023/09/18 06:17:24;;;;;;;8.77;1.70;;;21.40;99.90;;;;;;5089741;28;20191;-70
2023/09/18 06:19:50;;;;;;;12.17;1.50;;;21.40;99.90;;;;;;5054424;28;20190;-70
2023/09/18 06:22:15;;;;;;;4.17;1.87;;;21.50;99.90;;;;;;5089384;28;20211;-70
2023/09/18 06:24:42;;;;;;;3.90;1.33;;;21.50;99.90;;;;;;5089454;28;20290;-70
2023/09/18 06:27:08;;;;;;;6.50;1.97;;;21.50;99.90;;;;;;5070937;28;20179;-70
2023/09/18 06:29:34;;;;;;;8.67;2.00;;;21.60;99.90;;;;;;5089175;28;20411;-70
2023/09/18 06:32:00;;;;;;;4.47;1.40;;;21.60;99.90;;;;;;5071459;28;20200;-70
2023/09/18 06:34:27;;;;;;;3.80;1.60;;;21.60;99.90;;;;;;5071067;28;20444;-70
2023/09/18 06:36:53;;;;;;;7.00;1.63;;;21.60;99.90;;;;;;5071194;28;20433;-70
2023/09/18 06:39:20;;;;;;;6.30;1.53;;;21.60;99.90;;;;;;5089487;28;20434;-70
2023/09/18 06:41:45;;;;;;;6.60;1.77;;;21.50;99.90;;;;;;5089424;28;20225;-70
2023/09/18 06:44:11;;;;;;;3.63;1.47;;;21.50;99.90;;;;;;5071242;28;20899;-70
2023/09/18 06:46:37;;;;;;;9.30;2.27;;;21.50;99.90;;;;;;5089731;28;20654;-70
2023/09/18 06:49:03;;;;;;;7.40;1.67;;;21.60;99.90;;;;;;5071515;28;20192;-70
2023/09/18 06:51:29;;;;;;;5.83;1.47;;;21.70;99.90;;;;;;5071155;28;20202;-70
2023/09/18 06:53:57;;;;;;;8.30;4.40;;;21.70;99.90;;;;;;5071419;28;20820;-69
2023/09/18 06:56:25;;;;;;;6.87;2.50;;;21.70;99.90;;;;;;5089433;28;20177;-70
2023/09/18 06:58:51;;;;;;;5.80;2.03;;;21.70;99.90;;;;;;5070742;28;20452;-70
2023/09/18 07:01:20;;;;;;;5.87;2.27;;;21.70;99.90;;;;;;5089076;28;20453;-70
2023/09/18 07:03:47;;;;;;;9.00;2.07;;;21.80;99.90;;;;;;5088989;28;20434;-70
2023/09/18 07:06:18;;;;;;;6.67;1.93;;;21.90;99.90;;;;;;5088880;28;20422;-70
2023/09/18 07:08:44;;;;;;;5.60;2.03;;;21.90;99.90;;;;;;5070243;28;20425;-70
2023/09/18 07:11:10;;;;;;;16.87;2.80;;;21.90;99.90;;;;;;5088567;28;20419;-70
2023/09/18 07:13:36;;;;;;;13.07;3.20;;;22.00;99.90;;;;;;5088527;28;20252;-70
2023/09/18 07:16:03;;;;;;;7.87;1.77;;;22.00;99.90;;;;;;5070405;28;20409;-70
2023/09/18 07:18:29;;;;;;;6.23;2.00;;;22.00;99.90;;;;;;5054367;28;20656;-70
2023/09/18 07:20:55;;;;;;;8.57;1.77;;;22.10;99.90;;;;;;5088690;28;20498;-70
2023/09/18 07:23:20;;;;;;;6.33;1.50;;;22.00;99.90;;;;;;5088793;28;20184;-71
2023/09/18 07:25:48;;;;;;;8.40;2.13;;;22.10;99.90;;;;;;5088853;28;20189;-70
2023/09/18 07:28:17;;;;;;;9.43;2.20;;;22.00;99.90;;;;;;5088846;28;20644;-70
2023/09/18 07:30:46;;;;;;;7.83;2.17;;;22.00;99.90;;;;;;5088543;28;20416;-70
2023/09/18 07:33:12;;;;;;;5.40;2.00;;;22.00;99.90;;;;;;5088514;28;20434;-70
2023/09/18 07:35:38;;;;;;;12.80;2.70;;;21.90;99.90;;;;;;5088470;28;20426;-70
2023/09/18 07:38:04;;;;;;;11.63;2.43;;;21.90;99.90;;;;;;5070063;28;20414;-70
2023/09/18 07:40:30;;;;;;;7.90;2.17;;;21.90;99.90;;;;;;5087461;28;20181;-70
2023/09/18 07:42:55;;;;;;;15.63;2.90;;;21.80;99.90;;;;;;5088005;28;20969;-70
2023/09/18 07:45:24;;;;;;;9.33;1.90;;;21.80;99.90;;;;;;5069598;28;20216;-70
2023/09/18 07:47:49;;;;;;;10.47;1.90;;;21.70;99.90;;;;;;5088331;28;20225;-70
2023/09/18 07:50:15;;;;;;;9.83;2.27;;;21.60;99.90;;;;;;5088119;28;20810;-69
2023/09/18 07:52:40;;;;;;;10.33;2.37;;;21.60;99.90;;;;;;5069505;28;20228;-70
2023/09/18 07:55:07;;;;;;;5.20;1.50;;;21.70;99.90;;;;;;5088016;28;20659;-70
2023/09/18 07:57:34;;;;;;;7.80;1.83;;;21.80;99.90;;;;;;5088144;28;20174;-70
2023/09/18 08:00:06;;;;;;;11.43;2.40;;;21.70;99.90;;;;;;5088149;28;20421;-70
2023/09/18 08:02:32;;;;;;;6.30;2.67;;;21.70;99.90;;;;;;5087713;28;20470;-70
2023/09/18 08:04:58;;;;;;;13.30;1.90;;;21.90;99.90;;;;;;5087809;28;20444;-70
2023/09/18 08:07:23;;;;;;;4.27;2.00;;;22.00;99.90;;;;;;5087833;28;20176;-70
2023/09/18 08:09:49;;;;;;;8.70;2.03;;;22.00;99.90;;;;;;5069472;28;20769;-70
2023/09/18 08:12:14;;;;;;;7.40;1.80;;;21.90;99.90;;;;;;5069905;28;20231;-70
2023/09/18 08:14:40;;;;;;;5.73;1.70;;;22.00;99.90;;;;;;5088036;28;20247;-70
2023/09/18 08:17:07;;;;;;;14.97;2.17;;;21.80;99.90;;;;;;5088049;28;20195;-69
2023/09/18 08:19:33;;;;;;;8.57;1.53;;;21.80;99.90;;;;;;5088108;28;20178;-70
2023/09/18 08:22:01;;;;;;;5.73;1.80;;;21.70;99.90;;;;;;5087995;28;20557;-70
2023/09/18 08:24:27;;;;;;;6.73;1.60;;;21.50;99.90;;;;;;5070315;28;20433;-70
2023/09/18 08:26:53;;;;;;;6.60;2.00;;;21.40;99.90;;;;;;5088088;28;20422;-70
2023/09/18 08:29:19;;;;;;;12.33;2.23;;;21.40;99.90;;;;;;5069285;28;20180;-70
2023/09/18 08:31:44;;;;;;;6.30;1.70;;;21.30;99.90;;;;;;5087508;28;20470;-70
2023/09/18 08:34:10;;;;;;;6.20;1.77;;;21.20;99.90;;;;;;5087454;28;20200;-70
2023/09/18 08:36:36;;;;;;;10.83;1.97;;;21.30;99.90;;;;;;5087557;28;20187;-70
2023/09/18 08:39:05;;;;;;;7.60;1.37;;;21.20;99.90;;;;;;5087641;28;20269;-70
2023/09/18 08:41:32;;;;;;;8.37;1.53;;;21.20;99.90;;;;;;5087641;28;20255;-72
2023/09/18 08:44:03;;;;;;;5.27;1.70;;;21.20;99.90;;;;;;5087694;28;20436;-70
2023/09/18 08:46:30;;;;;;;3.77;1.13;;;21.10;99.90;;;;;;5087810;28;20418;-70
2023/09/18 08:48:58;;;;;;;5.57;1.20;;;20.90;99.90;;;;;;5087966;28;20517;-70
2023/09/18 08:51:24;;;;;;;1.70;1.30;;;20.80;99.90;;;;;;5087704;28;20435;-70
2023/09/18 08:53:51;;;;;;;3.50;1.20;;;20.70;99.90;;;;;;5087856;28;20455;-70
2023/09/18 08:56:17;;;;;;;12.70;1.70;;;20.60;99.90;;;;;;5069928;28;20854;-70
2023/09/18 08:58:44;;;;;;;7.70;1.10;;;20.50;99.90;;;;;;5069351;28;20447;-69
2023/09/18 09:01:10;;;;;;;3.20;1.20;;;20.30;99.90;;;;;;5087537;28;20826;-70
2023/09/18 09:03:41;;;;;;;4.87;1.30;;;20.20;99.90;;;;;;5087604;28;20432;-71
2023/09/18 09:06:08;;;;;;;7.40;1.10;;;20.10;99.90;;;;;;5087538;28;20422;-68
2023/09/18 09:08:34;;;;;;;5.30;1.20;;;20.00;99.90;;;;;;5087494;28;20473;-69
2023/09/18 09:11:00;;;;;;;1.67;0.83;;;19.70;99.90;;;;;;5087448;28;20412;-69
2023/09/18 09:13:26;;;;;;;4.07;1.20;;;19.60;99.90;;;;;;5087131;28;20471;-69
2023/09/18 09:15:57;;;;;;;2.30;0.90;;;19.50;99.90;;;;;;5087040;28;20257;-69
2023/09/18 09:18:25;;;;;;;3.17;1.07;;;19.30;99.90;;;;;;5068595;28;20528;-69
2023/09/18 09:20:57;;;;;;;1.80;0.97;;;19.30;99.90;;;;;;5086608;28;20512;-69
2023/09/18 09:23:24;;;;;;;2.27;0.87;;;19.30;99.90;;;;;;5086654;28;20413;-69
2023/09/18 09:25:50;;;;;;;0.90;0.60;;;19.40;99.90;;;;;;5087040;28;20451;-69
2023/09/18 09:28:18;;;;;;;3.00;0.70;;;19.40;99.90;;;;;;5068946;28;20452;-69
2023/09/18 09:30:44;;;;;;;1.10;0.80;;;19.40;99.90;;;;;;5068875;28;20271;-69
2023/09/18 09:33:12;;;;;;;5.37;0.80;;;19.30;99.90;;;;;;5086567;28;20520;-69
2023/09/18 09:35:39;;;;;;;3.50;1.10;;;19.10;99.90;;;;;;5086803;28;20217;-69
2023/09/18 09:38:09;;;;;;;3.83;0.97;;;19.00;99.90;;;;;;5068182;28;20455;-69
2023/09/18 09:40:37;;;;;;;2.03;0.70;;;19.00;99.90;;;;;;5068274;28;20420;-69
2023/09/18 09:43:04;;;;;;;2.30;1.20;;;19.00;99.90;;;;;;5086431;28;20459;-69
2023/09/18 09:45:35;;;;;;;2.47;1.30;;;18.90;99.90;;;;;;5068257;28;20451;-69
2023/09/18 09:48:02;;;;;;;1.30;1.00;;;18.80;99.90;;;;;;5086453;28;20944;-69
2023/09/18 09:50:28;;;;;;;2.53;0.90;;;18.80;99.90;;;;;;5067930;28;20424;-69
2023/09/18 09:52:55;;;;;;;1.40;0.70;;;18.70;99.90;;;;;;5086526;28;20463;-70
2023/09/18 09:55:33;;;;;;;1.10;0.80;;;18.70;99.90;;;;;;5086278;28;20435;-70
2023/09/18 09:58:04;;;;;;;3.00;0.80;;;18.70;99.90;;;;;;5086354;28;20827;-69
2023/09/18 10:00:49;;;;;;;3.10;0.73;;;18.80;99.90;;;;;;5068017;28;20419;-71
2023/09/18 10:03:17;;;;;;;4.30;0.87;;;18.90;99.90;;;;;;5070200;28;20427;-68
2023/09/18 10:05:46;;;;;;;2.07;1.00;;;19.00;99.90;;;;;;5089873;28;20438;-69
2023/09/18 10:08:15;;;;;;;2.03;0.80;;;18.90;99.90;;;;;;5090071;28;20496;-69
2023/09/18 10:10:47;;;;;;;1.77;1.03;;;18.70;99.90;;;;;;5089848;28;20401;-68
2023/09/18 10:13:17;;;;;;;2.50;0.90;;;18.60;99.90;;;;;;5089862;28;20775;-68
2023/09/18 10:15:43;;;;;;;2.37;1.00;;;18.50;99.90;;;;;;5071175;28;20424;-68
2023/09/18 10:18:44;;;;;;;3.20;0.70;;;18.70;99.90;;;;;;5071514;28;20425;-69
2023/09/18 10:21:24;;;;;;;1.10;0.70;;;18.70;99.90;;;;;;5048671;28;20551;-71
2023/09/18 10:24:16;;;;;;;1.90;0.80;;;18.70;99.90;;;;;;5089525;28;20500;-69
2023/09/18 10:26:51;;;;;;;2.30;0.70;;;18.70;99.90;;;;;;5089543;28;20830;-69
2023/09/18 10:29:19;;;;;;;1.30;0.73;;;18.70;99.90;;;;;;5089523;28;20652;-68
2023/09/18 10:31:46;;;;;;;7.00;0.60;;;18.70;99.90;;;;;;5071539;28;20986;-68
2023/09/18 10:34:15;;;;;;;2.60;0.70;;;18.70;99.90;;;;;;5089311;28;20950;-68
2023/09/18 10:36:41;;;;;;;2.50;0.70;;;18.70;99.90;;;;;;5089337;28;20410;-68
2023/09/18 10:39:12;;;;;;;1.73;0.73;;;18.60;99.90;;;;;;5070734;28;20444;-68
2023/09/18 10:41:39;;;;;;;2.17;1.10;;;18.40;99.90;;;;;;5089259;28;20524;-68
2023/09/18 10:44:06;;;;;;;1.87;1.30;;;18.40;99.90;;;;;;5089167;28;20444;-68
2023/09/18 10:46:32;;;;;;;3.53;1.57;;;18.20;99.90;;;;;;5089101;28;20412;-70
2023/09/18 10:49:00;;;;;;;2.37;1.07;;;18.20;99.90;;;;;;5089012;28;20412;-68
2023/09/18 10:51:27;;;;;;;4.50;1.10;;;18.20;99.90;;;;;;5089060;28;20441;-70
2023/09/18 10:53:52;;;;;;;2.87;1.10;;;18.10;99.90;;;;;;5088991;28;20429;-69
2023/09/18 10:56:21;;;;;;;2.90;0.90;;;18.10;99.90;;;;;;5088959;28;20449;-68
2023/09/18 10:58:57;;;;;;;1.73;1.17;;;18.00;99.90;;;;;;5070580;28;20278;-70
2023/09/18 11:01:23;;;;;;;2.30;1.20;;;18.00;99.90;;;;;;5088887;28;20451;-70
2023/09/18 11:03:50;;;;;;;3.03;1.13;;;18.00;99.90;;;;;;5089052;28;20526;-70
2023/09/18 11:06:17;;;;;;;2.33;0.93;;;18.00;99.90;;;;;;5070525;28;20416;-68
2023/09/18 11:08:44;;;;;;;3.93;1.10;;;18.00;99.90;;;;;;5088954;28;20422;-70
2023/09/18 11:11:12;;;;;;;2.00;1.00;;;18.00;99.90;;;;;;5088961;28;20473;-68
2023/09/18 11:13:55;;;;;;;2.10;1.03;;;18.00;99.90;;;;;;5088317;28;20523;-68
2023/09/18 11:16:26;;;;;;;2.93;1.07;;;17.90;99.90;;;;;;5088500;28;20489;-70
2023/09/18 11:18:54;;;;;;;1.30;0.90;;;17.90;99.90;;;;;;5088812;28;20408;-70
2023/09/18 11:21:24;;;;;;;2.50;1.07;;;17.90;99.90;;;;;;5088822;28;20460;-68
2023/09/18 11:23:58;;;;;;;2.90;1.03;;;18.00;99.90;;;;;;5088959;28;20506;-68
2023/09/18 11:26:28;;;;;;;2.00;1.10;;;18.00;99.90;;;;;;5088752;28;20408;-68
2023/09/18 11:28:53;;;;;;;5.03;1.30;;;18.00;99.90;;;;;;5088889;28;20419;-68
2023/09/18 11:31:21;;;;;;;3.33;1.27;;;18.00;99.90;;;;;;5070670;28;20910;-68
2023/09/18 11:33:47;;;;;;;5.90;1.17;;;18.10;99.90;;;;;;5088429;28;20209;-68
2023/09/18 11:36:30;;;;;;;2.23;1.30;;;18.20;99.90;;;;;;5069647;28;20462;-68
2023/09/18 11:39:03;;;;;;;2.27;1.10;;;18.20;99.90;;;;;;5088153;28;20980;-68
2023/09/18 11:41:34;;;;;;;3.80;1.40;;;18.20;99.90;;;;;;5088084;28;20463;-68
2023/09/18 11:44:18;;;;;;;2.83;1.03;;;18.20;99.90;;;;;;5088749;28;20432;-68
2023/09/18 11:46:51;;;;;;;4.03;1.03;;;18.20;99.90;;;;;;5088624;28;20877;-68
2023/09/18 11:49:27;;;;;;;3.20;1.20;;;18.20;99.90;;;;;;5088699;28;20444;-68
2023/09/18 11:51:54;;;;;;;1.93;0.90;;;18.20;99.90;;;;;;5070487;28;20470;-68
2023/09/18 11:54:21;;;;;;;2.23;1.07;;;18.20;99.90;;;;;;5089001;28;20436;-68
2023/09/18 11:56:46;;;;;;;3.53;1.37;;;18.30;99.90;;;;;;5071240;28;20452;-68
2023/09/18 11:59:13;;;;;;;1.50;1.00;;;18.30;99.90;;;;;;5089367;28;20496;-68
2023/09/18 12:01:46;;;;;;;5.60;1.40;;;18.30;99.90;;;;;;5089038;28;20198;-68
2023/09/18 12:04:12;;;;;;;3.57;1.10;;;18.30;99.90;;;;;;5088854;28;20434;-68
2023/09/18 12:06:42;;;;;;;5.77;1.33;;;18.40;99.90;;;;;;5070738;28;20432;-68
2023/09/18 12:09:08;;;;;;;1.83;1.10;;;18.40;99.90;;;;;;5088362;28;20182;-68
2023/09/18 12:11:35;;;;;;;5.23;1.67;;;18.30;99.90;;;;;;5069567;28;20424;-68
2023/09/18 12:14:05;;;;;;;5.53;1.73;;;18.30;99.90;;;;;;5087781;28;20958;-68
2023/09/18 12:16:31;;;;;;;4.90;1.47;;;18.30;99.90;;;;;;5087454;28;20866;-68
2023/09/18 12:18:57;;;;;;;1.97;0.90;;;18.40;99.90;;;;;;5087428;28;20869;-68
2023/09/18 12:21:23;;;;;;;2.27;1.20;;;18.40;99.90;;;;;;5087407;28;20685;-68
2023/09/18 12:23:49;;;;;;;1.73;1.07;;;18.40;99.90;;;;;;5087382;28;20554;-68
2023/09/18 12:26:15;;;;;;;10.40;1.50;;;18.40;99.90;;;;;;5086956;28;20539;-68
2023/09/18 12:28:43;;;;;;;6.83;1.30;;;18.50;99.90;;;;;;5087157;28;20484;-68
2023/09/18 12:31:13;;;;;;;3.20;1.87;;;18.50;99.90;;;;;;5088016;28;21210;-68
2023/09/18 12:33:40;;;;;;;4.77;1.10;;;18.50;99.90;;;;;;5087304;28;20447;-68
2023/09/18 12:36:08;;;;;;;2.40;1.07;;;18.60;99.90;;;;;;5087380;28;20441;-68
2023/09/18 12:38:34;;;;;;;4.50;1.60;;;18.60;99.90;;;;;;5069555;28;20426;-68
2023/09/18 12:41:05;;;;;;;2.07;1.10;;;18.70;99.90;;;;;;5069486;28;20484;-68
2023/09/18 12:43:42;;;;;;;4.90;1.20;;;18.90;99.90;;;;;;5087749;28;20450;-68
2023/09/18 12:46:09;;;;;;;1.73;0.90;;;19.10;99.90;;;;;;5087866;28;20523;-68